Time;durP1;ratioP1;P1;durP2;ratioP2;P2;SDS_P1;SDS_P2;PMS_P1;PMS_P2;Temp;Humidity;BMP_temperature;BMP_pressure;BME280_temperature;BME280_humidity;BME280_pressure;Samples;Min_cycle;Max_cycle;Signal;HPM_P1;HPM_P2
2022/12/29 00:00:04;;;;;;;4.10;1.40;;;;;;;8.16;100.00;99517.06;5011794;28;20053;-76
2022/12/29 00:02:38;;;;;;;4.15;1.70;;;;;;;8.20;100.00;99512.81;5013875;28;20037;-75
2022/12/29 00:05:05;;;;;;;2.40;1.30;;;;;;;8.21;100.00;99509.03;5011851;28;20544;-76
2022/12/29 00:07:31;;;;;;;3.15;1.20;;;;;;;8.17;100.00;99505.13;5011414;28;20038;-76
2022/12/29 00:09:57;;;;;;;2.08;1.35;;;;;;;8.20;100.00;99510.09;5016409;28;20042;-76
2022/12/29 00:12:23;;;;;;;3.83;1.55;;;;;;;8.24;100.00;99510.47;5013424;28;20037;-76
2022/12/29 00:17:34;;;;;;;2.80;1.23;;;;;;;8.27;100.00;99509.22;5013135;28;20053;-76
2022/12/29 00:36:36;;;;;;;2.00;1.08;;;;;;;8.62;100.00;99489.50;5012414;28;20104;-76
2022/12/29 00:44:40;;;;;;;2.58;1.20;;;;;;;8.69;100.00;99478.53;5012516;28;20478;-77
2022/12/29 00:47:06;;;;;;;2.58;1.33;;;;;;;8.74;100.00;99479.47;5030167;28;20029;-77
2022/12/29 00:49:33;;;;;;;1.95;0.90;;;;;;;8.78;100.00;99486.13;5015880;28;20438;-77
2022/12/29 00:52:05;;;;;;;2.30;1.13;;;;;;;8.80;100.00;99496.75;5010904;28;20065;-76
2022/12/29 00:54:34;;;;;;;1.85;1.10;;;;;;;8.83;100.00;99479.97;5012866;28;20045;-77
2022/12/29 00:57:02;;;;;;;1.50;0.90;;;;;;;8.84;100.00;99488.97;5012219;28;20036;-77
2022/12/29 00:59:28;;;;;;;3.72;1.40;;;;;;;8.85;100.00;99477.03;5011376;28;20025;-76
2022/12/29 01:01:57;;;;;;;2.90;1.10;;;;;;;8.80;100.00;99477.72;5012199;28;20061;-76
2022/12/29 01:04:25;;;;;;;2.10;1.10;;;;;;;8.82;100.00;99469.34;5013900;28;20045;-77
2022/12/29 01:06:51;;;;;;;3.97;1.33;;;;;;;8.78;100.00;99461.66;5025198;28;20059;-77
2022/12/29 01:12:04;;;;;;;4.47;1.17;;;;;;;8.67;100.00;99476.03;5015630;28;20041;-76
2022/12/29 01:14:31;;;;;;;2.85;1.20;;;;;;;8.63;100.00;99463.97;5016037;28;20022;-75
2022/12/29 01:16:57;;;;;;;2.22;1.10;;;;;;;8.54;100.00;99443.63;5031748;28;20083;-75
2022/12/29 01:19:23;;;;;;;1.95;1.08;;;;;;;8.49;100.00;99450.59;5020958;28;20038;-75
2022/12/29 01:21:50;;;;;;;1.98;1.10;;;;;;;8.47;100.00;99440.97;5020744;28;20036;-75
2022/12/29 01:24:18;;;;;;;2.75;1.00;;;;;;;8.40;100.00;99427.47;5015118;28;20049;-74
2022/12/29 01:26:44;;;;;;;2.47;1.35;;;;;;;8.39;100.00;99404.06;5016848;28;20038;-74
2022/12/29 01:29:10;;;;;;;2.33;1.10;;;;;;;8.38;100.00;99413.28;5013471;28;20045;-75
2022/12/29 01:31:36;;;;;;;3.05;1.17;;;;;;;8.40;100.00;99413.06;5028296;28;20034;-74
2022/12/29 01:34:03;;;;;;;2.03;1.20;;;;;;;8.35;100.00;99405.59;5028480;28;20046;-75
2022/12/29 01:36:29;;;;;;;2.58;1.05;;;;;;;8.41;100.00;99401.13;5013335;28;20041;-75
2022/12/29 01:38:56;;;;;;;2.10;1.27;;;;;;;8.49;100.00;99409.81;5012630;28;20053;-76
2022/12/29 01:41:23;;;;;;;3.72;1.20;;;;;;;8.45;100.00;99380.59;5014751;28;20040;-75
2022/12/29 01:43:56;;;;;;;2.25;1.10;;;;;;;8.46;100.00;99379.53;5017494;28;20140;-74
2022/12/29 01:46:33;;;;;;;3.42;1.00;;;;;;;8.38;100.00;99380.69;5014786;28;20029;-76
2022/12/29 01:49:08;;;;;;;2.15;1.40;;;;;;;8.37;100.00;99387.19;5014154;28;20026;-75
2022/12/29 01:51:45;;;;;;;2.70;1.00;;;;;;;8.42;100.00;99386.50;5022429;28;20045;-75
2022/12/29 01:54:24;;;;;;;2.00;0.98;;;;;;;8.39;100.00;99386.97;5019371;28;20092;-76
2022/12/29 01:56:51;;;;;;;;;;;;;;;8.33;100.00;99392.25;5022867;28;20545;-76
2022/12/29 01:59:24;;;;;;;2.08;0.82;;;;;;;8.35;100.00;99392.03;5029923;28;19925;-76
2022/12/29 02:01:51;;;;;;;2.20;1.17;;;;;;;8.29;100.00;99395.69;5014644;28;20033;-76
2022/12/29 02:04:17;;;;;;;2.55;1.00;;;;;;;8.35;100.00;99392.88;5027447;28;20060;-77
2022/12/29 02:07:01;;;;;;;1.98;0.90;;;;;;;8.43;100.00;99388.16;5020974;28;20043;-74
2022/12/29 02:09:27;;;;;;;1.90;1.10;;;;;;;8.45;100.00;99375.97;5026846;28;20033;-76
2022/12/29 02:11:53;;;;;;;2.20;1.20;;;;;;;8.41;100.00;99372.06;5013730;28;20038;-75
2022/12/29 02:14:19;;;;;;;2.38;1.00;;;;;;;8.34;100.00;99374.88;5018581;28;20034;-76
2022/12/29 02:17:05;;;;;;;1.88;1.05;;;;;;;8.29;100.00;99363.06;5012776;28;20128;-76
2022/12/29 02:20:09;;;;;;;1.58;1.02;;;;;;;8.30;100.00;99367.44;5021371;28;20030;-76
2022/12/29 02:22:41;;;;;;;1.60;0.77;;;;;;;8.28;100.00;99362.22;5014009;28;20046;-75
2022/12/29 02:25:37;;;;;;;2.55;1.05;;;;;;;8.27;100.00;99368.72;5027380;28;20041;-76
2022/12/29 02:28:03;;;;;;;2.00;1.20;;;;;;;8.29;100.00;99371.22;5015428;28;20048;-76
2022/12/29 02:30:32;;;;;;;3.50;1.17;;;;;;;8.34;100.00;99355.03;5027268;28;20079;-75
2022/12/29 02:33:23;;;;;;;1.60;0.93;;;;;;;8.42;100.00;99357.41;5013915;28;20145;-76
2022/12/29 02:36:20;;;;;;;3.13;0.93;;;;;;;8.56;100.00;99357.22;5027739;28;20489;-75
2022/12/29 02:39:05;;;;;;;2.33;1.10;;;;;;;8.71;100.00;99363.00;5026861;28;20436;-76
2022/12/29 02:41:38;;;;;;;3.15;0.98;;;;;;;8.83;100.00;99370.38;5026062;28;20041;-75
2022/12/29 02:44:16;;;;;;;2.78;1.20;;;;;;;8.87;100.00;99366.91;5014809;28;20417;-75
2022/12/29 02:46:47;;;;;;;1.53;0.77;;;;;;;8.98;100.00;99356.28;5030003;28;20072;-75
2022/12/29 02:49:48;;;;;;;1.95;0.82;;;;;;;9.08;100.00;99361.94;5027613;28;20029;-74
2022/12/29 02:52:22;;;;;;;2.60;0.90;;;;;;;9.11;100.00;99347.03;5012486;28;20107;-75
2022/12/29 02:54:49;;;;;;;1.38;0.82;;;;;;;9.21;100.00;99344.53;5016035;28;20033;-74
2022/12/29 02:57:29;;;;;;;2.10;0.73;;;;;;;9.31;100.00;99333.88;5010418;28;20065;-75
2022/12/29 02:59:58;;;;;;;1.90;0.82;;;;;;;9.36;100.00;99346.75;5027272;28;20045;-74
2022/12/29 03:03:04;;;;;;;1.00;0.70;;;;;;;9.37;100.00;99348.38;5025174;28;20034;-74
2022/12/29 03:05:41;;;;;;;1.45;0.90;;;;;;;9.36;100.00;99349.47;5016939;28;20041;-75
2022/12/29 03:08:46;;;;;;;3.00;0.90;;;;;;;9.38;100.00;99349.22;5012856;28;20049;-75
2022/12/29 03:17:34;;;;;;;0.98;0.70;;;10.90;99.90;;;9.31;100.00;99343.91;4992126;28;20041;-76
2022/12/29 03:20:14;;;;;;;1.90;0.90;;;10.80;99.90;;;9.34;100.00;99352.44;5009345;28;20027;-75
2022/12/29 03:22:46;;;;;;;1.85;0.93;;;10.90;99.90;;;9.35;100.00;99343.22;4997618;28;20031;-75
2022/12/29 03:25:43;;;;;;;1.27;0.60;;;10.90;99.90;;;9.39;100.00;99340.81;5008756;28;20482;-75
2022/12/29 03:28:29;;;;;;;2.88;1.27;;;10.90;99.90;;;9.41;100.00;99335.13;4995781;28;20029;-75
2022/12/29 03:30:58;;;;;;;1.70;0.85;;;10.90;99.90;;;9.43;100.00;99324.84;5010189;28;20056;-75
2022/12/29 03:33:29;;;;;;;2.72;1.00;;;10.90;99.90;;;9.40;100.00;99325.31;4993299;28;20045;-76
2022/12/29 03:36:05;;;;;;;1.83;0.90;;;10.90;99.90;;;9.36;100.00;99308.63;4991160;28;20031;-76
2022/12/29 03:38:46;;;;;;;3.17;0.95;;;10.90;99.90;;;9.29;100.00;99297.91;4991181;28;20092;-74
2022/12/29 03:41:22;;;;;;;2.60;0.80;;;10.80;99.90;;;9.20;100.00;99307.50;5007968;28;20064;-75
2022/12/29 03:43:48;;;;;;;1.95;0.98;;;10.80;99.90;;;9.11;100.00;99306.22;4992080;28;20049;-75
2022/12/29 03:46:13;;;;;;;1.48;0.75;;;10.70;99.90;;;9.13;100.00;99313.06;4994648;28;20486;-75
2022/12/29 03:48:41;;;;;;;2.88;1.10;;;10.60;99.90;;;9.05;100.00;99311.56;5008280;28;20478;-76
2022/12/29 03:51:08;;;;;;;1.60;0.85;;;10.60;99.90;;;9.03;100.00;99297.38;4992850;28;20034;-75
2022/12/29 03:53:33;;;;;;;2.50;1.10;;;10.60;99.90;;;9.00;100.00;99300.56;4994087;28;20040;-75
2022/12/29 03:56:00;;;;;;;3.00;1.10;;;10.50;99.90;;;9.05;100.00;99292.53;5009109;28;20117;-74
2022/12/29 03:58:26;;;;;;;2.00;0.95;;;10.60;99.90;;;9.02;100.00;99275.84;4992722;28;20042;-75
2022/12/29 04:01:10;;;;;;;1.67;0.85;;;10.60;99.90;;;9.04;100.00;99292.75;5008042;28;20041;-76
2022/12/29 04:03:38;;;;;;;2.07;1.10;;;10.50;99.90;;;9.14;100.00;99264.94;5012200;28;20558;-75
2022/12/29 04:06:04;;;;;;;3.05;0.88;;;10.60;99.90;;;9.18;100.00;99274.25;5014209;28;20292;-75
2022/12/29 04:08:38;;;;;;;3.03;0.93;;;10.70;99.90;;;9.20;100.00;99269.41;4993612;28;20037;-75
2022/12/29 04:11:05;;;;;;;1.53;0.80;;;10.70;99.90;;;9.20;100.00;99275.69;4991291;28;20030;-75
2022/12/29 04:13:31;;;;;;;3.05;1.00;;;10.70;99.90;;;9.34;100.00;99273.50;4992340;28;20054;-75
2022/12/29 04:15:57;;;;;;;0.93;0.65;;;10.80;99.90;;;9.40;100.00;99274.41;5007550;28;20096;-74
2022/12/29 04:18:22;;;;;;;1.35;0.70;;;10.90;99.90;;;9.49;100.00;99277.56;4993232;28;20401;-74
2022/12/29 04:21:00;;;;;;;1.50;0.55;;;11.00;99.90;;;9.58;100.00;99305.25;5006674;28;20044;-75
2022/12/29 04:23:29;;;;;;;1.23;0.52;;;11.10;99.90;;;9.68;100.00;99299.16;4992526;28;20041;-75
2022/12/29 04:25:55;;;;;;;1.13;0.60;;;11.10;99.90;;;9.74;100.00;99277.25;5004024;28;20096;-75
2022/12/29 04:28:21;;;;;;;1.17;0.60;;;11.20;99.90;;;9.77;100.00;99281.34;5006045;28;20030;-75
2022/12/29 04:30:58;;;;;;;0.73;0.50;;;11.30;99.90;;;9.81;100.00;99307.03;4991787;28;20038;-74
2022/12/29 04:33:34;;;;;;;0.80;0.50;;;11.30;99.90;;;9.82;100.00;99289.63;4997198;28;20057;-75
2022/12/29 04:36:01;;;;;;;2.38;0.60;;;11.30;99.90;;;9.79;100.00;99290.94;5015381;28;20034;-75
2022/12/29 04:38:28;;;;;;;1.02;0.60;;;11.30;99.90;;;9.86;100.00;99298.13;5006563;28;20568;-75
2022/12/29 04:40:54;;;;;;;1.02;0.50;;;11.30;99.90;;;9.92;99.81;99284.34;5008732;28;20026;-75
2022/12/29 04:43:22;;;;;;;1.35;0.65;;;11.40;99.90;;;9.95;99.23;99279.50;4980572;28;20038;-75
2022/12/29 04:46:11;;;;;;;1.67;0.70;;;11.40;99.90;;;9.95;99.43;99277.59;4995904;28;20050;-75
2022/12/29 04:48:46;;;;;;;1.05;0.47;;;11.40;99.90;;;9.98;98.39;99289.88;5009618;28;20126;-75
2022/12/29 04:51:31;;;;;;;2.03;0.60;;;11.50;99.90;;;10.04;96.99;99297.06;4997311;28;20564;-74
2022/12/29 04:53:57;;;;;;;0.70;0.50;;;11.50;99.90;;;10.04;96.33;99287.00;4996412;28;20042;-74
2022/12/29 04:56:24;;;;;;;0.88;0.57;;;11.60;99.90;;;10.09;95.68;99283.56;5018246;28;20037;-75
2022/12/29 04:58:50;;;;;;;1.30;0.60;;;11.60;99.90;;;10.16;94.71;99273.31;4997618;28;20038;-75
2022/12/29 05:01:15;;;;;;;1.58;0.70;;;11.60;99.90;;;10.19;93.99;99281.00;5002647;28;20030;-75
2022/12/29 05:03:41;;;;;;;1.50;0.40;;;11.70;99.90;;;10.17;93.70;99276.84;4996118;28;20069;-76
2022/12/29 05:06:07;;;;;;;1.13;0.40;;;11.70;99.90;;;10.18;93.78;99287.50;4994518;28;20089;-75
2022/12/29 05:08:33;;;;;;;1.70;0.50;;;11.70;99.90;;;10.25;92.54;99271.00;5017154;28;20092;-75
2022/12/29 05:11:01;;;;;;;1.42;0.52;;;11.70;99.90;;;10.26;92.02;99266.38;4994407;28;20101;-76
2022/12/29 05:13:27;;;;;;;1.70;0.70;;;11.70;99.90;;;10.33;91.15;99272.47;4994749;28;20038;-76
2022/12/29 05:15:53;;;;;;;2.03;0.43;;;11.80;99.90;;;10.30;91.21;99273.81;5017451;28;20104;-76
2022/12/29 05:18:21;;;;;;;0.60;0.50;;;11.80;99.90;;;10.32;90.66;99262.63;5009864;28;20130;-74
2022/12/29 05:20:48;;;;;;;0.60;0.47;;;11.80;99.90;;;10.31;90.72;99258.25;4995636;28;20446;-76
2022/12/29 05:23:14;;;;;;;1.90;0.52;;;11.80;99.90;;;10.31;90.00;99269.16;5010584;28;20030;-76
2022/12/29 05:25:43;;;;;;;2.00;0.45;;;11.80;99.90;;;10.36;89.68;99283.72;4978348;28;20034;-75
2022/12/29 05:28:23;;;;;;;1.48;0.40;;;11.80;99.90;;;10.31;90.20;99266.44;5012180;28;20034;-76
2022/12/29 05:30:56;;;;;;;0.70;0.35;;;11.80;99.90;;;10.36;89.45;99269.25;4994824;28;20031;-76
2022/12/29 05:33:22;;;;;;;3.50;0.50;;;11.80;99.90;;;10.35;89.04;99262.16;4997328;28;20029;-76
2022/12/29 05:35:49;;;;;;;1.40;0.63;;;11.80;99.90;;;10.39;87.53;99246.97;5014770;28;20581;-76
2022/12/29 05:38:16;;;;;;;1.15;0.50;;;11.90;99.90;;;10.43;88.10;99255.47;5009880;28;20121;-75
2022/12/29 05:40:43;;;;;;;0.93;0.43;;;11.90;99.90;;;10.49;87.25;99233.50;5010645;28;20049;-76
2022/12/29 05:43:41;;;;;;;1.35;0.57;;;11.90;99.90;;;10.42;88.01;99259.28;4999663;28;20038;-76
2022/12/29 05:46:14;;;;;;;1.40;0.38;;;11.90;99.90;;;10.42;88.27;99272.91;4994946;28;20045;-76
2022/12/29 05:48:48;;;;;;;1.20;0.60;;;11.90;99.90;;;10.45;89.37;99269.69;5011005;28;20027;-76
2022/12/29 05:51:21;;;;;;;1.25;0.70;;;11.90;99.90;;;10.10;95.05;99271.59;5001905;28;20070;-76
2022/12/29 05:53:52;;;;;;;2.40;0.30;;;11.70;99.90;;;9.79;100.00;99285.50;4992932;28;20100;-75
2022/12/29 05:56:18;;;;;;;0.85;0.45;;;11.40;99.90;;;9.62;100.00;99299.06;4995732;28;20026;-76
2022/12/29 05:58:51;;;;;;;1.00;0.43;;;11.20;99.90;;;9.40;100.00;99290.75;5010044;28;20035;-76
2022/12/29 06:01:16;;;;;;;2.63;0.68;;;11.00;99.90;;;9.45;100.00;99277.25;5011246;28;20038;-75
2022/12/29 06:03:42;;;;;;;1.75;0.68;;;11.00;99.90;;;9.27;100.00;99288.31;5011023;28;20045;-76
2022/12/29 06:06:09;;;;;;;1.25;0.52;;;10.90;99.90;;;9.26;100.00;99283.94;4993118;28;20057;-76
2022/12/29 06:08:36;;;;;;;2.30;0.55;;;10.80;99.90;;;9.15;100.00;99274.75;5001793;28;20031;-76
2022/12/29 06:11:02;;;;;;;3.58;0.68;;;10.70;99.90;;;9.08;100.00;99283.03;5016629;28;20041;-76
2022/12/29 06:13:28;;;;;;;1.48;0.50;;;10.60;99.90;;;9.07;100.00;99290.38;4995583;28;20030;-77
2022/12/29 06:15:55;;;;;;;0.88;0.47;;;10.60;99.90;;;9.12;100.00;99281.47;4994005;28;20035;-76
2022/12/29 06:18:21;;;;;;;2.05;0.68;;;10.60;99.90;;;9.11;100.00;99273.59;5010283;28;20153;-76
2022/12/29 06:20:47;;;;;;;1.85;0.57;;;10.60;99.90;;;9.02;100.00;99264.97;5006831;28;20026;-76
2022/12/29 06:23:16;;;;;;;0.80;0.40;;;10.60;99.90;;;8.95;100.00;99262.38;4998053;28;20030;-76
2022/12/29 06:25:41;;;;;;;1.85;0.57;;;10.50;99.90;;;8.96;100.00;99249.59;5007991;28;20038;-76
2022/12/29 06:28:07;;;;;;;1.17;0.50;;;10.50;99.90;;;9.04;100.00;99241.91;5012437;28;20462;-77
2022/12/29 06:30:33;;;;;;;1.27;0.60;;;10.50;99.90;;;9.11;100.00;99240.94;5008578;28;20045;-77
2022/12/29 06:33:01;;;;;;;0.77;0.50;;;10.60;99.90;;;9.14;100.00;99238.53;4997400;28;20118;-76
2022/12/29 06:35:28;;;;;;;1.13;0.57;;;10.70;99.90;;;9.15;100.00;99228.50;4992020;28;20398;-76
2022/12/29 06:37:53;;;;;;;0.88;0.60;;;10.70;99.90;;;9.18;100.00;99233.44;5007536;28;20137;-76
2022/12/29 06:40:20;;;;;;;1.77;0.60;;;10.70;99.90;;;9.17;100.00;99239.97;4995309;28;20060;-76
2022/12/29 06:43:18;;;;;;;0.90;0.40;;;10.70;99.90;;;9.23;100.00;99236.25;4997780;28;20046;-75
2022/12/29 06:45:57;;;;;;;0.90;0.60;;;10.70;99.90;;;9.22;100.00;99240.06;5007807;28;20061;-77
2022/12/29 06:48:22;;;;;;;1.67;0.40;;;10.70;99.90;;;9.28;100.00;99219.22;4992960;28;20102;-77
2022/12/29 06:50:48;;;;;;;1.33;0.65;;;10.80;99.90;;;9.28;100.00;99220.06;4994594;28;20034;-77
2022/12/29 06:53:14;;;;;;;0.75;0.40;;;10.80;99.90;;;9.44;100.00;99229.31;4995070;28;20431;-76
2022/12/29 06:55:41;;;;;;;1.50;0.30;;;10.90;99.90;;;9.48;100.00;99229.66;5013038;28;20042;-77
2022/12/29 06:58:07;;;;;;;0.85;0.50;;;11.00;99.90;;;9.55;100.00;99216.72;4997808;28;20038;-75
2022/12/29 07:00:33;;;;;;;2.00;0.43;;;11.00;99.90;;;9.64;100.00;99223.41;4994553;28;20062;-76
2022/12/29 07:02:59;;;;;;;1.58;0.30;;;11.10;99.90;;;9.61;100.00;99229.34;4994496;28;20078;-75
2022/12/29 07:05:27;;;;;;;1.08;0.40;;;11.10;99.90;;;9.44;100.00;99233.94;4992172;28;20042;-75
2022/12/29 07:07:54;;;;;;;0.65;0.40;;;11.00;99.90;;;9.27;100.00;99242.06;4994870;28;20102;-76
2022/12/29 07:10:20;;;;;;;1.57;0.60;;;10.90;99.90;;;9.17;100.00;99229.91;4994797;28;20101;-75
2022/12/29 07:12:46;;;;;;;0.70;0.30;;;10.80;99.90;;;9.26;100.00;99233.06;4994787;28;20042;-75
2022/12/29 07:15:12;;;;;;;0.40;0.30;;;10.80;99.90;;;9.31;100.00;99233.16;4993554;28;20499;-75
2022/12/29 07:17:38;;;;;;;0.95;0.30;;;10.80;99.90;;;9.59;100.00;99227.94;4994336;28;20042;-75
2022/12/29 07:20:05;;;;;;;0.65;0.45;;;11.00;99.90;;;9.74;100.00;99221.94;5009561;28;20046;-76
2022/12/29 07:22:30;;;;;;;1.20;0.28;;;11.20;99.90;;;9.92;100.00;99223.59;4998133;28;20382;-74
2022/12/29 07:24:56;;;;;;;0.60;0.20;;;11.30;99.90;;;10.11;99.12;99199.66;4994516;28;20049;-76
2022/12/29 07:27:21;;;;;;;0.63;0.30;;;11.50;99.90;;;10.19;96.66;99201.13;4994135;28;20046;-75
2022/12/29 07:29:47;;;;;;;1.25;0.60;;;11.70;99.90;;;10.35;95.49;99268.44;5000884;28;20038;-76
2022/12/29 07:32:13;;;;;;;1.90;0.35;;;11.80;99.90;;;10.31;95.22;99239.19;4993996;28;20035;-76
2022/12/29 07:34:39;;;;;;;1.30;0.40;;;11.80;99.90;;;10.27;97.48;99273.47;4993883;28;20046;-76
2022/12/29 07:37:05;;;;;;;0.43;0.30;;;11.80;99.90;;;10.22;97.16;99268.78;4993586;28;20086;-77
2022/12/29 07:39:31;;;;;;;1.80;0.45;;;11.70;99.90;;;10.14;97.41;99300.00;5003658;28;20037;-76
2022/12/29 07:41:56;;;;;;;0.88;0.32;;;11.60;99.90;;;10.13;99.19;99311.13;5001282;28;20042;-79
2022/12/29 07:44:24;;;;;;;1.58;0.40;;;11.60;99.90;;;9.94;100.00;99335.84;5017170;28;20578;-79
2022/12/29 07:47:13;;;;;;;1.92;0.63;;;11.40;99.90;;;9.82;100.00;99356.91;4993508;28;20105;-77
2022/12/29 07:49:39;;;;;;;1.17;0.45;;;11.30;99.90;;;9.37;100.00;99350.31;4997934;28;20061;-80
2022/12/29 07:52:05;;;;;;;1.27;0.73;;;11.00;99.90;;;8.94;100.00;99334.16;4998117;28;20054;-79
2022/12/29 07:54:30;;;;;;;1.65;0.50;;;10.70;99.90;;;8.73;100.00;99335.59;5006026;28;20037;-78
2022/12/29 07:56:57;;;;;;;1.45;0.50;;;10.40;99.90;;;8.73;100.00;99346.47;4993569;28;20382;-76
2022/12/29 07:59:23;;;;;;;1.80;0.47;;;10.30;99.90;;;8.80;100.00;99339.00;5006430;28;20041;-76
2022/12/29 08:01:48;;;;;;;1.50;0.50;;;10.30;99.90;;;8.78;100.00;99333.84;4998489;28;20799;-75
2022/12/29 08:04:14;;;;;;;0.98;0.50;;;10.30;99.90;;;8.83;100.00;99343.16;4994242;28;20432;-75
2022/12/29 08:06:40;;;;;;;2.90;0.47;;;10.30;99.90;;;8.74;100.00;99334.53;5007425;28;20030;-76
2022/12/29 08:09:07;;;;;;;0.88;0.30;;;10.30;99.90;;;8.65;100.00;99334.06;4993632;28;20402;-76
2022/12/29 08:11:33;;;;;;;1.83;0.47;;;10.20;99.90;;;8.57;100.00;99337.13;5006550;28;20118;-77
2022/12/29 08:13:58;;;;;;;0.70;0.40;;;10.10;99.90;;;8.44;100.00;99347.13;4993769;28;20046;-76
2022/12/29 08:16:24;;;;;;;1.58;0.50;;;10.00;99.90;;;8.36;100.00;99355.63;5012152;28;20462;-76
2022/12/29 08:18:50;;;;;;;1.80;0.60;;;9.80;99.90;;;8.34;100.00;99355.84;5001252;28;20026;-76
2022/12/29 08:21:15;;;;;;;2.25;0.50;;;9.80;99.90;;;8.33;100.00;99343.31;4997024;28;20519;-76
2022/12/29 08:23:41;;;;;;;1.27;0.50;;;9.90;99.90;;;8.40;100.00;99348.66;4997457;28;20034;-75
2022/12/29 08:26:07;;;;;;;1.45;0.40;;;9.90;99.90;;;8.39;100.00;99357.88;4997870;28;20042;-78
2022/12/29 08:28:33;;;;;;;0.65;0.40;;;9.90;99.90;;;8.41;100.00;99365.81;4996957;28;20045;-76
2022/12/29 08:31:01;;;;;;;2.97;0.95;;;9.90;99.90;;;8.41;100.00;99363.91;4996178;28;20064;-75
2022/12/29 08:33:27;;;;;;;0.52;0.40;;;9.90;99.90;;;8.44;100.00;99370.78;4997088;28;20038;-76
2022/12/29 08:36:00;;;;;;;1.48;0.60;;;10.00;99.90;;;8.43;100.00;99372.66;4997182;28;20038;-76
2022/12/29 08:38:27;;;;;;;1.52;0.45;;;10.00;99.90;;;8.33;100.00;99366.97;5012595;28;20038;-77
2022/12/29 08:40:53;;;;;;;1.77;0.60;;;9.90;99.90;;;8.29;100.00;99374.75;5012003;28;20117;-78
2022/12/29 08:43:19;;;;;;;2.92;0.70;;;9.80;99.90;;;8.34;100.00;99376.78;4997278;28;20116;-81
2022/12/29 08:45:44;;;;;;;0.85;0.50;;;9.90;99.90;;;8.32;100.00;99385.16;5017538;28;20041;-80
2022/12/29 08:48:10;;;;;;;0.98;0.57;;;9.90;99.90;;;8.27;100.00;99381.50;5010772;28;20397;-78
2022/12/29 08:50:36;;;;;;;2.28;0.90;;;9.80;99.90;;;8.20;100.00;99385.13;5008645;28;20043;-76
2022/12/29 08:53:02;;;;;;;1.45;0.95;;;9.70;99.90;;;8.09;100.00;99375.06;4995253;28;20034;-77
2022/12/29 08:55:27;;;;;;;3.50;0.95;;;9.70;99.90;;;8.06;100.00;99383.69;5010083;28;20034;-77
2022/12/29 08:57:53;;;;;;;1.60;0.98;;;9.60;99.90;;;8.05;100.00;99387.44;4994976;28;20034;-76
2022/12/29 09:00:20;;;;;;;3.70;1.00;;;9.60;99.90;;;8.00;100.00;99398.19;5011828;28;20040;-77
2022/12/29 09:02:46;;;;;;;3.85;1.10;;;9.60;99.90;;;7.96;100.00;99389.66;5010872;28;20030;-77
2022/12/29 09:05:12;;;;;;;1.60;1.00;;;9.50;99.90;;;7.98;100.00;99403.03;4997150;28;20034;-78
2022/12/29 09:07:38;;;;;;;2.28;1.20;;;9.50;99.90;;;7.98;100.00;99401.13;4997118;28;20174;-77
2022/12/29 09:10:05;;;;;;;3.90;1.10;;;9.50;99.90;;;8.05;100.00;99398.31;4997058;28;20042;-78
2022/12/29 09:12:30;;;;;;;2.70;1.20;;;9.50;99.90;;;8.13;100.00;99406.13;5000507;28;20038;-76
2022/12/29 09:14:56;;;;;;;2.53;1.20;;;9.70;99.90;;;8.21;100.00;99386.78;4996461;28;20042;-76
2022/12/29 09:20:08;;;;;;;2.92;1.00;;;9.70;99.90;;;8.32;100.00;99381.63;4996701;28;20038;-75
2022/12/29 09:22:34;;;;;;;2.38;1.10;;;9.80;99.90;;;8.43;100.00;99399.81;5006295;28;20038;-75
2022/12/29 09:25:00;;;;;;;2.30;0.80;;;9.90;99.90;;;8.65;100.00;99406.66;5011784;28;20069;-75
2022/12/29 09:27:26;;;;;;;1.73;1.13;;;10.10;99.90;;;8.73;100.00;99406.28;5010809;28;20121;-76
2022/12/29 09:29:52;;;;;;;3.08;0.90;;;10.20;99.90;;;8.58;100.00;99402.13;5009475;28;20397;-77
2022/12/29 09:32:17;;;;;;;2.05;0.90;;;10.10;99.90;;;8.33;100.00;99415.88;5018533;28;20482;-77
2022/12/29 09:34:43;;;;;;;2.72;1.00;;;9.90;99.90;;;8.18;100.00;99413.59;5007640;28;20042;-77
2022/12/29 09:37:09;;;;;;;3.10;1.17;;;9.80;99.90;;;8.00;100.00;99418.00;5008382;28;20065;-78
2022/12/29 09:39:34;;;;;;;4.55;1.20;;;9.60;99.90;;;7.90;100.00;99402.25;4996025;28;20038;-77
2022/12/29 09:42:16;;;;;;;1.45;0.93;;;9.50;99.90;;;7.99;100.00;99416.34;4977487;28;20034;-77
2022/12/29 09:45:10;;;;;;;2.65;0.80;;;9.50;99.90;;;8.01;100.00;99413.41;4995259;28;20398;-78
2022/12/29 09:47:36;;;;;;;2.95;1.00;;;9.50;99.90;;;8.04;100.00;99405.63;5001740;28;20038;-77
2022/12/29 09:50:19;;;;;;;2.28;0.93;;;9.60;99.90;;;8.05;100.00;99403.75;5002304;28;20040;-79
2022/12/29 09:53:05;;;;;;;2.58;0.90;;;9.60;99.90;;;8.03;100.00;99392.28;4996206;28;20037;-77
2022/12/29 09:55:41;;;;;;;1.52;0.82;;;9.60;99.90;;;8.00;100.00;99399.00;5011135;28;20026;-78
2022/12/29 09:58:21;;;;;;;3.30;1.10;;;9.60;99.90;;;8.18;100.00;99408.97;4996280;28;20045;-78
2022/12/29 10:00:57;;;;;;;2.10;1.02;;;9.60;99.90;;;8.34;100.00;99417.53;4998113;28;20074;-78
2022/12/29 10:03:33;;;;;;;1.73;0.85;;;9.80;99.90;;;8.33;100.00;99411.25;5006382;28;20037;-78
2022/12/29 10:06:17;;;;;;;2.10;1.02;;;9.90;99.90;;;8.30;100.00;99427.22;4995795;28;20379;-77
2022/12/29 10:09:20;;;;;;;2.40;1.10;;;9.80;99.90;;;8.20;100.00;99408.75;4992879;28;20491;-77
2022/12/29 10:12:26;;;;;;;1.73;0.90;;;9.80;99.90;;;8.29;100.00;99410.06;4992601;28;20062;-78
2022/12/29 10:15:38;;;;;;;1.90;1.10;;;9.80;99.90;;;8.31;100.00;99412.56;4992891;28;20041;-78
2022/12/29 10:18:38;;;;;;;3.78;1.00;;;9.80;99.90;;;8.30;100.00;99421.78;4999885;28;20091;-79
2022/12/29 10:21:54;;;;;;;3.75;1.10;;;9.80;99.90;;;8.24;100.00;99407.22;4995362;28;20118;-79
2022/12/29 10:24:22;;;;;;;4.00;1.00;;;9.80;99.90;;;8.10;100.00;99420.19;5012647;28;20099;-79
2022/12/29 10:26:51;;;;;;;;;;;9.70;99.90;;;8.01;100.00;99418.84;5006653;28;20077;-78
2022/12/29 10:29:33;;;;;;;3.67;1.42;;;9.60;99.90;;;7.99;100.00;99410.09;4992005;28;19926;-79
2022/12/29 10:32:06;;;;;;;1.40;0.98;;;9.50;99.90;;;8.03;100.00;99406.69;4993815;28;20041;-77
2022/12/29 10:34:39;;;;;;;4.18;0.93;;;9.50;99.90;;;7.99;100.00;99389.19;5015109;28;20034;-78
2022/12/29 10:37:22;;;;;;;1.50;1.05;;;9.50;99.90;;;9.12;100.00;99394.94;5006786;28;20045;-79
2022/12/29 10:39:55;;;;;;;2.65;1.05;;;9.90;99.90;;;10.83;100.00;99400.88;5008402;28;20400;-78
2022/12/29 10:42:40;;;;;;;1.55;0.85;;;11.30;99.90;;;11.66;100.00;99386.47;5008878;28;20042;-79
2022/12/29 10:45:16;;;;;;;3.67;0.73;;;12.40;99.90;;;12.27;92.00;99387.41;5010714;28;20037;-78
2022/12/29 10:48:15;;;;;;;1.67;0.70;;;13.00;99.90;;;13.07;82.18;99372.97;4996509;28;20052;-77
2022/12/29 10:50:42;;;;;;;2.17;0.45;;;14.10;99.90;;;13.75;75.52;99363.16;4992198;28;20497;-77
2022/12/29 10:53:21;;;;;;;2.13;0.80;;;14.90;99.90;;;14.19;68.55;99372.88;5008827;28;20103;-78
2022/12/29 10:55:47;;;;;;;1.55;0.60;;;15.50;99.90;;;14.18;69.75;99376.69;5009378;28;20034;-79
2022/12/29 10:58:14;;;;;;;0.95;0.60;;;15.70;99.90;;;13.52;67.75;99385.31;5005824;28;20037;-80
2022/12/29 11:00:42;;;;;;;1.70;0.70;;;15.60;99.90;;;12.38;76.99;99372.75;5006205;28;20042;-79
2022/12/29 11:03:23;;;;;;;;;;;14.60;99.90;;;11.08;82.94;99392.28;4999248;28;20065;-77
2022/12/29 11:06:00;;;;;;;4.55;1.10;;;13.30;99.90;;;10.39;86.17;99402.34;4993895;28;19918;-79
2022/12/29 11:08:35;;;;;;;5.25;0.93;;;12.30;99.90;;;10.16;86.39;99406.00;4996144;28;20042;-77
2022/12/29 11:11:05;;;;;;;3.40;0.93;;;11.90;99.90;;;10.03;84.09;99398.97;4995075;28;20125;-76
2022/12/29 11:13:48;;;;;;;5.40;0.98;;;11.60;99.90;;;9.93;87.50;99405.88;4992077;28;20034;-76
2022/12/29 11:16:14;;;;;;;2.72;0.90;;;11.50;99.90;;;9.90;85.98;99420.00;4997262;28;20034;-76
2022/12/29 11:18:46;;;;;;;2.95;0.80;;;11.40;99.90;;;9.85;86.74;99417.16;4998485;28;20413;-75
2022/12/29 11:21:30;;;;;;;2.90;0.90;;;11.40;99.90;;;9.87;85.94;99411.47;4992038;28;20121;-79
2022/12/29 11:24:05;;;;;;;4.45;1.02;;;11.40;99.90;;;9.86;88.14;99424.28;5000796;28;20045;-77
2022/12/29 11:26:33;;;;;;;3.17;1.23;;;11.40;99.90;;;10.93;82.07;99423.69;5014587;28;20034;-76
2022/12/29 11:29:07;;;;;;;3.63;1.00;;;11.90;99.90;;;12.44;70.86;99411.91;4996533;28;20045;-77
2022/12/29 11:31:54;;;;;;;3.38;1.00;;;13.20;99.90;;;12.40;67.06;99381.50;4989126;28;20129;-78